Time;durP1;ratioP1;P1;durP2;ratioP2;P2;SDS_P1;SDS_P2;PMS_P1;PMS_P2;Temp;Humidity;BMP_temperature;BMP_pressure;BME280_temperature;BME280_humidity;BME280_pressure;Samples;Min_cycle;Max_cycle;Signal;HPM_P1;HPM_P2
2022/07/28 00:01:34;;;;;;;9.38;2.88;;;14.30;99.90;;;;;;5086311;28;20210;-83
2022/07/28 00:04:01;;;;;;;4.18;2.22;;;14.20;99.90;;;;;;5086124;28;20286;-82
2022/07/28 00:06:28;;;;;;;6.70;2.83;;;14.20;99.90;;;;;;5084571;28;20210;-81
2022/07/28 00:08:55;;;;;;;3.05;2.30;;;14.10;99.90;;;;;;5083891;28;20206;-79
2022/07/28 00:11:22;;;;;;;7.13;1.92;;;14.10;99.90;;;;;;5085712;28;20217;-80
2022/07/28 00:13:50;;;;;;;3.55;2.63;;;14.10;99.90;;;;;;5081710;28;20275;-81
2022/07/28 00:16:17;;;;;;;5.93;2.60;;;14.00;99.90;;;;;;5083438;28;20265;-81
2022/07/28 00:18:44;;;;;;;4.20;2.25;;;14.00;99.90;;;;;;5085164;28;20634;-82
2022/07/28 00:21:11;;;;;;;3.22;1.92;;;14.00;99.90;;;;;;5085113;28;20274;-81
2022/07/28 00:23:38;;;;;;;3.60;2.00;;;14.00;99.90;;;;;;5084832;28;20226;-80
2022/07/28 00:26:05;;;;;;;5.65;2.83;;;14.10;99.90;;;;;;5082745;28;20614;-79
2022/07/28 00:28:32;;;;;;;5.82;2.28;;;14.10;99.90;;;;;;5084126;28;20262;-80
2022/07/28 00:31:00;;;;;;;3.08;2.53;;;14.00;99.90;;;;;;5088148;28;20210;-82
2022/07/28 00:33:27;;;;;;;3.88;1.90;;;14.10;99.90;;;;;;5092154;28;20203;-80
2022/07/28 00:35:53;;;;;;;7.57;2.50;;;13.90;99.90;;;;;;5090544;28;20226;-79
2022/07/28 00:38:20;;;;;;;11.40;3.00;;;13.90;99.90;;;;;;5088545;28;20212;-77
2022/07/28 00:43:31;;;;;;;3.78;2.60;;;13.90;99.90;;;;;;5090115;28;20222;-80
2022/07/28 00:45:59;;;;;;;5.65;2.13;;;13.80;99.90;;;;;;5085026;28;20648;-79
2022/07/28 00:48:26;;;;;;;7.07;3.10;;;13.80;99.90;;;;;;5084241;28;20258;-79
2022/07/28 00:50:53;;;;;;;6.22;2.33;;;13.80;99.90;;;;;;5085429;28;20290;-79
2022/07/28 00:53:21;;;;;;;6.60;3.03;;;13.90;99.90;;;;;;5081886;28;20212;-81
2022/07/28 00:55:47;;;;;;;10.75;3.95;;;13.70;99.90;;;;;;5082948;28;20233;-81
2022/07/28 00:58:15;;;;;;;8.82;3.00;;;13.90;99.90;;;;;;5085459;28;20209;-77
2022/07/28 01:00:41;;;;;;;2.38;2.08;;;13.80;99.90;;;;;;5084926;28;20266;-79
2022/07/28 01:03:10;;;;;;;2.90;1.70;;;13.70;99.90;;;;;;5086639;28;20206;-77
2022/07/28 01:05:45;;;;;;;3.75;2.20;;;13.80;99.90;;;;;;5077253;28;20644;-78
2022/07/28 01:08:18;;;;;;;6.50;2.92;;;13.80;99.90;;;;;;5083701;28;20202;-78
2022/07/28 01:10:52;;;;;;;3.70;2.20;;;13.80;99.90;;;;;;5075025;28;20197;-79
2022/07/28 01:13:28;;;;;;;2.30;1.55;;;13.70;99.90;;;;;;5086855;28;20199;-79
2022/07/28 01:16:00;;;;;;;5.57;2.45;;;13.80;99.90;;;;;;5075905;28;20225;-81
2022/07/28 01:18:36;;;;;;;6.00;2.45;;;13.70;99.90;;;;;;5072502;28;20245;-79
2022/07/28 01:21:08;;;;;;;7.90;2.65;;;13.70;99.90;;;;;;5082267;28;20683;-78
2022/07/28 01:24:11;;;;;;;4.57;2.22;;;13.80;99.90;;;;;;5075956;28;20222;-78
2022/07/28 01:26:54;;;;;;;3.90;2.03;;;13.80;99.90;;;;;;5060870;28;20233;-80
2022/07/28 01:29:36;;;;;;;3.63;1.80;;;13.90;99.90;;;;;;5078635;28;20205;-80
2022/07/28 01:32:08;;;;;;;3.90;2.03;;;13.90;99.90;;;;;;5082313;28;20294;-80
2022/07/28 01:34:50;;;;;;;4.93;1.98;;;13.90;99.90;;;;;;5084415;28;20211;-80
2022/07/28 01:37:23;;;;;;;2.30;1.40;;;14.00;99.90;;;;;;5085470;28;20267;-81
2022/07/28 01:39:54;;;;;;;7.80;1.88;;;13.90;99.90;;;;;;5081097;28;20259;-79
2022/07/28 01:42:23;;;;;;;2.78;2.47;;;14.00;99.90;;;;;;5081065;28;20212;-81
2022/07/28 01:44:53;;;;;;;4.20;2.33;;;14.00;99.90;;;;;;5080870;28;20223;-80
2022/07/28 01:47:23;;;;;;;4.57;1.92;;;14.00;99.90;;;;;;5080959;28;20206;-83
2022/07/28 01:49:51;;;;;;;3.40;1.90;;;14.00;99.90;;;;;;5076479;28;20199;-80
2022/07/28 01:52:19;;;;;;;3.88;1.80;;;14.00;99.90;;;;;;5078195;28;20234;-80
2022/07/28 01:54:47;;;;;;;4.65;1.67;;;14.00;99.90;;;;;;5079763;28;20586;-80
2022/07/28 01:57:16;;;;;;;4.53;1.70;;;14.00;99.90;;;;;;5084817;28;20284;-81
2022/07/28 01:59:44;;;;;;;8.75;1.67;;;14.00;99.90;;;;;;5085706;28;20198;-82
2022/07/28 02:02:13;;;;;;;5.10;2.60;;;14.00;99.90;;;;;;5080367;28;20206;-79
2022/07/28 02:04:42;;;;;;;3.00;1.60;;;13.90;99.90;;;;;;5084801;28;20250;-81
2022/07/28 02:07:11;;;;;;;4.85;2.00;;;13.90;99.90;;;;;;5084905;28;20250;-82
2022/07/28 02:09:39;;;;;;;2.33;1.65;;;13.90;99.90;;;;;;5083177;28;20360;-81
2022/07/28 02:12:07;;;;;;;10.50;1.73;;;13.80;99.90;;;;;;5084483;28;20298;-82
2022/07/28 02:14:36;;;;;;;4.07;2.00;;;13.80;99.90;;;;;;5085323;28;20655;-82
2022/07/28 02:17:09;;;;;;;4.93;2.30;;;13.90;99.90;;;;;;5084547;28;20203;-79
2022/07/28 02:19:38;;;;;;;3.40;1.50;;;13.90;99.90;;;;;;5080154;28;20199;-82
2022/07/28 02:22:07;;;;;;;3.60;1.67;;;14.00;99.90;;;;;;5085910;28;20644;-80
2022/07/28 02:24:35;;;;;;;4.63;2.00;;;13.90;99.90;;;;;;5084580;28;20237;-82
2022/07/28 02:27:09;;;;;;;2.47;1.70;;;14.00;99.90;;;;;;5084317;28;20686;-81
2022/07/28 02:29:43;;;;;;;7.32;2.03;;;14.00;99.90;;;;;;5078540;28;20206;-80
2022/07/28 02:32:17;;;;;;;6.07;1.85;;;14.00;99.90;;;;;;5077931;28;20206;-82
2022/07/28 02:34:44;;;;;;;2.97;1.70;;;14.00;99.90;;;;;;5107330;22;20726;-78
2022/07/28 02:37:15;;;;;;;9.65;2.63;;;14.10;99.90;;;;;;5051762;28;20240;-79
2022/07/28 02:39:46;;;;;;;8.13;2.33;;;14.10;99.90;;;;;;5044817;28;20256;-81
2022/07/28 02:42:17;;;;;;;5.20;1.60;;;14.20;99.90;;;;;;5049760;28;20225;-79
2022/07/28 02:44:46;;;;;;;4.70;2.22;;;14.20;99.90;;;;;;5050951;28;20243;-80
2022/07/28 02:47:25;;;;;;;4.95;1.67;;;14.30;99.90;;;;;;5044344;28;20228;-79
2022/07/28 02:49:55;;;;;;;7.95;2.42;;;14.20;99.90;;;;;;5051154;28;20279;-79
2022/07/28 02:52:25;;;;;;;9.43;2.38;;;14.20;99.90;;;;;;5050132;28;20235;-78
2022/07/28 02:54:53;;;;;;;3.13;2.70;;;14.20;99.90;;;;;;5047750;28;20288;-80
2022/07/28 02:57:21;;;;;;;3.35;1.92;;;14.30;99.90;;;;;;5044548;28;20197;-79
2022/07/28 02:59:49;;;;;;;3.80;2.17;;;14.30;99.90;;;;;;5045362;28;20609;-79
2022/07/28 03:02:19;;;;;;;2.97;1.67;;;14.20;99.90;;;;;;5039029;28;20208;-79
2022/07/28 03:05:00;;;;;;;7.13;1.60;;;14.20;99.90;;;;;;5049581;28;20287;-78
2022/07/28 03:07:31;;;;;;;4.03;2.10;;;14.20;99.90;;;;;;5053326;28;20211;-79
2022/07/28 03:09:59;;;;;;;6.63;1.90;;;14.20;99.90;;;;;;5050980;28;20204;-80
2022/07/28 03:12:26;;;;;;;5.45;1.70;;;14.10;99.90;;;;;;5036462;28;20216;-80
2022/07/28 03:14:54;;;;;;;2.40;1.90;;;14.00;99.90;;;;;;5036379;28;20284;-80
2022/07/28 03:17:21;;;;;;;2.70;2.08;;;14.00;99.90;;;;;;5033656;28;20229;-78
2022/07/28 03:19:48;;;;;;;7.22;3.42;;;13.90;99.90;;;;;;5037534;28;20214;-79
2022/07/28 03:22:15;;;;;;;3.97;2.22;;;13.90;99.90;;;;;;5045068;28;20220;-78
2022/07/28 03:24:47;;;;;;;4.32;1.67;;;14.00;99.90;;;;;;5047521;28;20241;-79
2022/07/28 03:27:22;;;;;;;6.68;2.20;;;13.90;99.90;;;;;;5052773;28;20223;-78
2022/07/28 03:29:51;;;;;;;2.25;1.80;;;14.00;99.90;;;;;;5049440;28;20375;-79
2022/07/28 03:32:20;;;;;;;8.38;2.40;;;14.00;99.90;;;;;;5043707;28;20212;-78
2022/07/28 03:34:48;;;;;;;2.10;1.77;;;14.10;99.90;;;;;;5036890;28;20235;-79
2022/07/28 03:37:20;;;;;;;4.70;2.13;;;14.00;99.90;;;;;;5032632;28;20204;-78
2022/07/28 03:39:50;;;;;;;3.78;1.90;;;14.00;99.90;;;;;;5046000;28;20282;-78
2022/07/28 03:42:19;;;;;;;3.50;2.33;;;14.10;99.90;;;;;;5048719;28;20235;-79
2022/07/28 03:44:46;;;;;;;8.25;2.35;;;14.10;99.90;;;;;;5050885;28;20290;-81
2022/07/28 03:47:14;;;;;;;3.80;2.03;;;14.10;99.90;;;;;;5052080;28;20235;-80
2022/07/28 03:49:41;;;;;;;3.50;2.20;;;14.20;99.90;;;;;;5048760;28;20199;-80
2022/07/28 03:52:08;;;;;;;4.22;2.50;;;14.10;99.90;;;;;;5041180;28;20217;-79
2022/07/28 03:54:35;;;;;;;3.80;3.00;;;14.10;99.90;;;;;;5036542;28;20242;-80
2022/07/28 03:57:03;;;;;;;4.93;2.30;;;14.10;99.90;;;;;;5048556;28;20291;-78
2022/07/28 03:59:30;;;;;;;4.07;2.20;;;14.10;99.90;;;;;;5045141;28;20897;-81
2022/07/28 04:01:56;;;;;;;5.85;2.10;;;14.10;99.90;;;;;;5048787;28;20268;-78
2022/07/28 04:04:24;;;;;;;3.30;2.55;;;14.10;99.90;;;;;;5046010;28;20288;-79
2022/07/28 04:06:51;;;;;;;4.47;2.50;;;14.10;99.90;;;;;;5052451;28;20264;-79
2022/07/28 04:09:17;;;;;;;4.80;2.65;;;14.10;99.90;;;;;;5052357;28;20619;-78
2022/07/28 04:11:44;;;;;;;5.80;2.20;;;14.20;99.90;;;;;;5052728;28;20277;-78
2022/07/28 04:14:12;;;;;;;3.10;2.15;;;14.20;99.90;;;;;;5042771;28;20293;-78
2022/07/28 04:16:39;;;;;;;7.32;2.38;;;14.30;99.90;;;;;;5048755;28;20197;-78
2022/07/28 04:19:07;;;;;;;3.15;2.38;;;14.40;99.90;;;;;;5050343;28;20192;-78
2022/07/28 04:21:33;;;;;;;3.17;2.22;;;14.60;99.90;;;;;;5051350;28;20200;-78
2022/07/28 04:24:00;;;;;;;3.33;2.10;;;14.60;99.90;;;;;;5048944;28;20215;-79
2022/07/28 04:26:27;;;;;;;4.85;2.65;;;14.70;99.90;;;;;;5042009;28;20232;-79
2022/07/28 04:28:54;;;;;;;5.03;2.80;;;14.70;99.90;;;;;;5042672;28;20205;-81
2022/07/28 04:31:22;;;;;;;4.95;2.60;;;14.80;99.90;;;;;;5046855;28;20188;-78
2022/07/28 04:33:49;;;;;;;3.50;2.10;;;14.80;99.90;;;;;;5047338;28;20337;-79
2022/07/28 04:36:16;;;;;;;5.80;3.45;;;14.90;99.90;;;;;;5049211;28;20259;-79
2022/07/28 04:38:43;;;;;;;6.10;2.50;;;15.00;99.90;;;;;;5051877;28;20200;-79
2022/07/28 04:41:09;;;;;;;7.35;2.75;;;15.10;99.90;;;;;;5044517;28;20195;-79
2022/07/28 04:43:37;;;;;;;6.53;2.92;;;15.20;99.90;;;;;;5042986;28;20235;-79
2022/07/28 04:46:04;;;;;;;5.18;2.28;;;15.30;99.90;;;;;;5047861;28;20314;-80
2022/07/28 04:48:32;;;;;;;6.35;2.97;;;15.40;99.90;;;;;;5048420;28;20672;-79
2022/07/28 04:50:59;;;;;;;4.97;2.17;;;15.40;99.90;;;;;;5038090;28;20204;-80
2022/07/28 04:53:27;;;;;;;9.43;3.35;;;15.50;99.90;;;;;;5032180;28;20231;-79
2022/07/28 04:55:56;;;;;;;4.57;2.55;;;15.50;99.90;;;;;;5048604;28;20192;-80
2022/07/28 04:58:23;;;;;;;3.00;2.35;;;15.70;99.90;;;;;;5047274;28;20212;-80
2022/07/28 05:00:50;;;;;;;4.88;2.47;;;15.80;99.90;;;;;;5040771;28;20201;-79
2022/07/28 05:03:16;;;;;;;8.35;3.30;;;16.00;99.90;;;;;;5040254;28;20291;-80
2022/07/28 05:05:45;;;;;;;8.95;2.83;;;16.10;99.90;;;;;;5040197;28;20244;-80
2022/07/28 05:08:11;;;;;;;5.57;2.85;;;16.20;99.90;;;;;;5048798;28;20277;-80
2022/07/28 05:10:38;;;;;;;3.80;2.70;;;16.40;99.90;;;;;;5035888;28;20278;-79
2022/07/28 05:13:06;;;;;;;10.55;3.50;;;16.60;99.90;;;;;;5037614;28;20208;-78
2022/07/28 05:15:33;;;;;;;5.93;2.70;;;16.90;99.90;;;;;;5042852;28;20793;-79
2022/07/28 05:18:00;;;;;;;7.90;2.50;;;17.10;99.90;;;;;;5034701;28;20270;-77
2022/07/28 05:20:27;;;;;;;5.63;2.33;;;17.30;99.90;;;;;;5042854;28;20202;-78
2022/07/28 05:22:56;;;;;;;9.43;2.80;;;17.50;99.90;;;;;;5042801;28;20652;-80
2022/07/28 05:25:25;;;;;;;5.07;2.75;;;17.40;99.90;;;;;;5047826;28;20223;-79
2022/07/28 05:27:53;;;;;;;8.43;2.70;;;17.50;99.90;;;;;;5044708;28;20196;-80
2022/07/28 05:30:20;;;;;;;4.30;2.35;;;17.50;99.90;;;;;;5041349;28;20211;-80
2022/07/28 05:32:47;;;;;;;6.10;2.77;;;17.70;99.90;;;;;;5037494;28;20204;-80
2022/07/28 05:35:15;;;;;;;3.90;2.20;;;17.70;99.90;;;;;;5048355;28;20457;-81
2022/07/28 05:37:42;;;;;;;2.70;2.47;;;17.90;99.90;;;;;;5046173;28;20465;-79
2022/07/28 05:40:13;;;;;;;8.30;3.00;;;18.10;99.90;;;;;;5049478;28;20564;-80
2022/07/28 05:42:41;;;;;;;6.23;2.53;;;18.00;99.90;;;;;;5047568;28;20443;-80
2022/07/28 05:45:10;;;;;;;2.70;1.90;;;17.90;99.90;;;;;;5046402;28;20483;-80
2022/07/28 05:47:45;;;;;;;3.40;2.43;;;17.90;99.90;;;;;;5040697;28;20554;-79
2022/07/28 05:50:13;;;;;;;5.60;2.60;;;18.00;99.90;;;;;;5044579;28;20450;-78
2022/07/28 05:52:40;;;;;;;6.10;2.60;;;18.10;99.90;;;;;;5044988;28;20911;-80
2022/07/28 05:55:08;;;;;;;3.03;2.73;;;18.20;99.90;;;;;;5045487;28;20483;-80
2022/07/28 05:57:38;;;;;;;5.23;2.50;;;18.40;99.90;;;;;;5044730;28;20445;-80
2022/07/28 06:00:07;;;;;;;4.30;2.30;;;19.00;99.90;;;;;;5051290;28;20430;-79
2022/07/28 06:02:34;;;;;;;5.87;2.63;;;19.50;99.90;;;;;;5039964;28;20447;-80
2022/07/28 06:05:01;;;;;;;3.73;2.30;;;19.70;99.90;;;;;;5047801;28;20543;-81
2022/07/28 06:07:28;;;;;;;6.33;2.57;;;19.90;99.90;;;;;;5044455;28;20527;-80
2022/07/28 06:09:54;;;;;;;5.57;2.77;;;19.80;99.70;;;;;;5043039;28;20495;-80
2022/07/28 06:12:21;;;;;;;5.27;3.20;;;19.90;99.70;;;;;;5046059;28;20975;-79
2022/07/28 06:14:50;;;;;;;8.37;2.87;;;20.00;99.10;;;;;;5048273;28;20559;-80
2022/07/28 06:17:22;;;;;;;3.70;2.33;;;20.30;98.90;;;;;;5042666;28;21166;-80
2022/07/28 06:19:48;;;;;;;6.77;2.70;;;20.60;98.10;;;;;;5049327;28;20442;-79
2022/07/28 06:22:15;;;;;;;7.17;3.07;;;20.90;96.70;;;;;;5045661;28;21165;-78
2022/07/28 06:24:42;;;;;;;13.10;4.00;;;20.80;96.50;;;;;;5038308;28;20940;-80
2022/07/28 06:27:09;;;;;;;6.37;3.07;;;21.10;96.40;;;;;;5044533;28;20558;-78
2022/07/28 06:29:36;;;;;;;6.27;2.87;;;20.90;96.20;;;;;;5034071;28;20532;-80
2022/07/28 06:32:05;;;;;;;7.10;3.17;;;20.60;96.90;;;;;;5042797;28;20449;-81
2022/07/28 06:34:31;;;;;;;4.00;2.10;;;20.30;97.60;;;;;;5042247;28;21094;-81
2022/07/28 06:36:59;;;;;;;3.40;2.57;;;20.20;97.80;;;;;;5048738;28;20442;-80
2022/07/28 06:39:25;;;;;;;6.90;3.30;;;20.30;97.70;;;;;;5048522;28;20449;-78
2022/07/28 06:41:52;;;;;;;4.27;2.47;;;20.60;97.40;;;;;;5048128;28;20457;-81
2022/07/28 06:44:19;;;;;;;3.10;2.37;;;20.90;96.40;;;;;;5040225;28;20477;-80
2022/07/28 06:46:46;;;;;;;8.00;2.70;;;21.20;95.10;;;;;;5050963;28;20481;-80
2022/07/28 06:49:15;;;;;;;11.40;2.50;;;21.40;94.60;;;;;;5052105;28;20459;-79
2022/07/28 06:51:42;;;;;;;14.90;3.13;;;21.70;93.80;;;;;;5048532;28;20457;-80
2022/07/28 06:54:09;;;;;;;3.50;1.60;;;22.20;91.40;;;;;;5036203;28;20477;-81
2022/07/28 06:56:36;;;;;;;6.07;2.43;;;22.50;90.80;;;;;;5049952;28;20493;-78
2022/07/28 06:59:03;;;;;;;8.60;2.60;;;22.80;89.70;;;;;;5050892;28;20447;-80
2022/07/28 07:01:30;;;;;;;5.33;1.90;;;22.90;89.40;;;;;;5049132;28;20458;-81
2022/07/28 07:03:57;;;;;;;2.40;1.27;;;23.10;87.80;;;;;;5053716;28;20463;-80
2022/07/28 07:06:25;;;;;;;2.77;1.00;;;23.50;86.30;;;;;;5054457;28;20486;-80
2022/07/28 07:08:52;;;;;;;4.80;1.90;;;23.50;84.10;;;;;;5057038;28;20453;-80
2022/07/28 07:11:19;;;;;;;4.80;2.33;;;23.50;83.70;;;;;;5055724;28;20454;-78
2022/07/28 07:13:46;;;;;;;3.43;1.27;;;23.20;84.30;;;;;;5055673;28;20456;-80
2022/07/28 07:16:14;;;;;;;6.40;2.20;;;23.20;84.00;;;;;;5043166;28;20497;-81
2022/07/28 07:18:40;;;;;;;2.80;1.87;;;23.20;84.20;;;;;;5053048;28;20438;-79
2022/07/28 07:21:07;;;;;;;4.53;1.40;;;23.20;84.30;;;;;;5039345;28;20481;-80
2022/07/28 07:23:36;;;;;;;4.93;1.57;;;23.40;83.70;;;;;;5045790;28;20487;-80
2022/07/28 07:26:04;;;;;;;4.07;1.70;;;24.10;82.90;;;;;;5054093;28;20542;-78
2022/07/28 07:28:33;;;;;;;5.57;1.73;;;24.80;81.20;;;;;;5056939;28;20459;-81
2022/07/28 07:31:00;;;;;;;3.63;1.43;;;24.90;79.90;;;;;;5048936;28;20483;-80
2022/07/28 07:33:27;;;;;;;2.70;1.23;;;24.90;79.00;;;;;;5041842;28;20547;-81
2022/07/28 07:35:55;;;;;;;3.97;2.27;;;24.40;79.80;;;;;;5043027;28;20448;-83
2022/07/28 07:38:21;;;;;;;3.77;1.20;;;24.40;80.30;;;;;;5055001;28;20517;-79
2022/07/28 07:40:50;;;;;;;3.43;1.70;;;24.30;79.10;;;;;;5057016;28;20466;-83
2022/07/28 07:43:17;;;;;;;4.67;1.30;;;24.10;79.50;;;;;;5044599;28;20451;-79
2022/07/28 07:45:44;;;;;;;6.23;2.00;;;23.80;80.00;;;;;;5056920;28;20517;-81
2022/07/28 07:48:11;;;;;;;9.77;1.70;;;23.90;79.80;;;;;;5056447;28;20482;-83
2022/07/28 07:50:38;;;;;;;7.20;1.53;;;23.90;80.10;;;;;;5057690;28;20435;-82
2022/07/28 07:53:05;;;;;;;5.00;1.60;;;24.00;78.80;;;;;;5055728;28;20454;-81
2022/07/28 07:55:32;;;;;;;3.30;1.27;;;24.00;78.50;;;;;;5057805;28;20440;-83
2022/07/28 07:58:00;;;;;;;5.23;1.73;;;23.70;78.40;;;;;;5046087;28;20443;-82
2022/07/28 08:00:27;;;;;;;5.20;1.47;;;24.10;78.70;;;;;;5057944;28;20450;-82
2022/07/28 08:02:54;;;;;;;4.57;2.17;;;24.30;77.20;;;;;;5057267;28;20435;-83
2022/07/28 08:05:21;;;;;;;3.60;1.20;;;23.80;77.00;;;;;;5043125;28;20441;-82
2022/07/28 08:07:48;;;;;;;4.93;1.30;;;23.50;77.70;;;;;;5057976;28;20475;-81
2022/07/28 08:10:15;;;;;;;3.47;1.20;;;23.30;76.70;;;;;;5055902;28;20503;-83
2022/07/28 08:12:42;;;;;;;2.40;1.07;;;23.50;77.90;;;;;;5058126;28;20427;-82
2022/07/28 08:15:12;;;;;;;5.43;1.20;;;23.40;77.30;;;;;;5074964;22;20480;-76
2022/07/28 08:17:39;;;;;;;3.13;1.50;;;23.30;78.40;;;;;;5067751;28;20444;-77
2022/07/28 08:20:06;;;;;;;2.53;1.10;;;23.20;78.60;;;;;;5070514;28;20531;-78
2022/07/28 08:22:33;;;;;;;7.40;1.87;;;23.30;77.00;;;;;;5074714;28;20844;-77
2022/07/28 08:25:00;;;;;;;2.73;1.13;;;23.30;76.70;;;;;;5070669;28;20453;-76
2022/07/28 08:27:27;;;;;;;2.30;1.23;;;23.30;75.90;;;;;;5074731;28;20495;-77
2022/07/28 08:29:54;;;;;;;6.87;1.50;;;23.00;76.30;;;;;;5074199;28;20520;-77
2022/07/28 08:32:23;;;;;;;3.00;1.07;;;23.00;75.30;;;;;;5073970;28;20550;-76
2022/07/28 08:34:50;;;;;;;3.53;1.40;;;23.00;76.30;;;;;;5069486;28;20489;-77
2022/07/28 08:37:17;;;;;;;2.80;0.90;;;23.00;75.70;;;;;;5067995;28;20479;-77
2022/07/28 08:39:44;;;;;;;2.40;1.30;;;22.90;75.60;;;;;;5073838;28;20452;-75
2022/07/28 08:42:16;;;;;;;2.87;1.40;;;22.50;76.20;;;;;;5072126;28;20528;-76
2022/07/28 08:44:55;;;;;;;2.03;0.90;;;22.90;77.40;;;;;;5073606;28;20469;-78
2022/07/28 08:47:25;;;;;;;3.70;1.20;;;23.90;75.30;;;;;;5061664;28;20979;-77
2022/07/28 08:49:54;;;;;;;3.83;1.13;;;23.80;74.40;;;;;;5073460;28;20536;-78
2022/07/28 08:52:22;;;;;;;4.40;0.90;;;23.50;74.40;;;;;;5063088;28;20871;-77
2022/07/28 08:54:50;;;;;;;3.20;1.20;;;23.20;74.70;;;;;;5073949;28;20978;-77
2022/07/28 08:57:20;;;;;;;2.33;1.00;;;23.10;75.50;;;;;;5064279;28;20429;-76
2022/07/28 08:59:49;;;;;;;5.53;1.17;;;22.60;76.50;;;;;;5083793;28;20466;-77
2022/07/28 09:02:17;;;;;;;2.90;1.23;;;22.70;77.20;;;;;;5075774;28;20479;-76
2022/07/28 09:04:46;;;;;;;2.30;0.87;;;22.80;76.80;;;;;;5066734;28;20472;-77
2022/07/28 09:07:13;;;;;;;4.90;2.97;;;22.80;76.00;;;;;;5072940;28;20476;-77
2022/07/28 09:09:40;;;;;;;5.93;1.17;;;22.60;76.20;;;;;;5074238;28;20465;-76
2022/07/28 09:12:08;;;;;;;7.17;2.60;;;22.60;77.10;;;;;;5074276;28;20532;-76
2022/07/28 09:14:35;;;;;;;2.90;1.10;;;22.80;77.50;;;;;;5072369;28;20464;-77
2022/07/28 09:17:03;;;;;;;2.43;1.60;;;22.90;77.40;;;;;;5075596;28;20461;-77
2022/07/28 09:19:31;;;;;;;4.13;1.43;;;23.20;75.80;;;;;;5070969;28;20456;-77
2022/07/28 09:22:00;;;;;;;3.70;1.53;;;23.50;75.50;;;;;;5070301;28;20511;-77
2022/07/28 09:24:33;;;;;;;4.30;1.57;;;24.00;74.70;;;;;;5071581;28;20548;-76
2022/07/28 09:27:02;;;;;;;2.57;1.63;;;25.20;73.00;;;;;;5070844;28;20571;-76
2022/07/28 09:29:30;;;;;;;2.07;1.57;;;25.80;71.60;;;;;;5064917;28;20449;-76
2022/07/28 09:31:57;;;;;;;2.10;1.23;;;25.60;70.80;;;;;;5077674;28;20441;-76
2022/07/28 09:34:25;;;;;;;5.80;1.53;;;25.10;71.20;;;;;;5073801;28;20476;-75
2022/07/28 09:36:52;;;;;;;4.23;1.60;;;25.10;72.00;;;;;;5075462;28;20440;-77
2022/07/28 09:39:32;;;;;;;2.33;1.10;;;24.80;70.70;;;;;;5073936;28;20457;-78
2022/07/28 09:42:00;;;;;;;4.53;1.53;;;24.60;71.70;;;;;;5074423;28;20544;-76
2022/07/28 09:44:28;;;;;;;4.53;1.90;;;24.50;72.90;;;;;;5074549;28;20469;-76
2022/07/28 09:46:55;;;;;;;3.57;1.33;;;24.60;73.50;;;;;;5066386;28;20509;-77
2022/07/28 09:49:39;;;;;;;3.87;1.20;;;25.00;72.40;;;;;;5064113;28;20457;-76
2022/07/28 09:52:07;;;;;;;2.40;1.10;;;25.70;71.10;;;;;;5066052;28;20440;-78
2022/07/28 09:54:35;;;;;;;1.60;1.20;;;26.40;68.20;;;;;;5070765;28;20460;-76
2022/07/28 09:57:03;;;;;;;1.80;1.03;;;26.80;66.50;;;;;;5061024;28;20441;-76
2022/07/28 09:59:41;;;;;;;3.03;1.23;;;25.80;66.20;;;;;;5067580;28;20487;-77
2022/07/28 10:02:09;;;;;;;4.90;1.40;;;25.30;68.40;;;;;;5062849;28;20452;-76
2022/07/28 10:04:37;;;;;;;2.53;1.40;;;25.60;69.00;;;;;;5061704;28;20467;-76
2022/07/28 10:07:08;;;;;;;3.40;1.20;;;26.60;68.50;;;;;;5061677;28;20913;-77
2022/07/28 10:09:37;;;;;;;4.83;1.40;;;27.70;66.10;;;;;;5068120;28;20533;-77
2022/07/28 10:12:19;;;;;;;5.03;1.00;;;27.90;65.50;;;;;;5065034;28;20451;-76
2022/07/28 10:14:47;;;;;;;3.97;1.20;;;28.30;64.80;;;;;;5069716;28;21109;-77
2022/07/28 10:17:25;;;;;;;2.20;1.73;;;28.20;63.40;;;;;;5069595;28;20465;-77
2022/07/28 10:19:57;;;;;;;6.03;1.73;;;27.70;64.30;;;;;;5068602;28;20809;-77
2022/07/28 10:22:28;;;;;;;2.30;1.20;;;26.90;66.00;;;;;;5074999;28;20461;-78
2022/07/28 10:25:00;;;;;;;3.17;1.00;;;26.40;66.10;;;;;;5071058;28;20492;-76
2022/07/28 10:27:28;;;;;;;3.73;1.80;;;26.10;66.10;;;;;;5073384;28;20469;-77
2022/07/28 10:29:58;;;;;;;2.80;1.10;;;25.50;67.70;;;;;;5069297;28;20458;-77
2022/07/28 10:32:28;;;;;;;3.63;1.63;;;25.30;67.70;;;;;;5075764;28;20529;-77
2022/07/28 10:35:01;;;;;;;3.57;1.20;;;25.10;67.90;;;;;;5074088;28;20473;-77
2022/07/28 10:37:30;;;;;;;2.63;1.13;;;24.60;68.80;;;;;;5075959;28;20788;-77
2022/07/28 10:40:03;;;;;;;3.30;1.70;;;24.40;70.40;;;;;;5075541;28;20451;-78
2022/07/28 10:42:31;;;;;;;3.17;0.90;;;24.70;71.10;;;;;;5075576;28;20449;-77
2022/07/28 10:44:59;;;;;;;2.73;1.20;;;25.00;70.90;;;;;;5075941;28;20958;-77
2022/07/28 10:47:27;;;;;;;4.37;1.10;;;25.30;70.40;;;;;;5077393;28;20570;-77
2022/07/28 10:49:56;;;;;;;2.20;1.00;;;25.70;69.50;;;;;;5072386;28;20849;-76
2022/07/28 10:52:24;;;;;;;1.60;1.00;;;26.30;68.20;;;;;;5076857;28;20498;-77
2022/07/28 10:55:03;;;;;;;2.50;0.97;;;26.60;67.70;;;;;;5076494;28;20564;-77
2022/07/28 10:57:31;;;;;;;3.20;1.37;;;26.40;66.20;;;;;;5067372;28;20437;-76
2022/07/28 11:00:04;;;;;;;4.27;1.60;;;25.90;66.60;;;;;;5084498;28;20445;-77
2022/07/28 11:02:47;;;;;;;3.73;1.30;;;25.20;68.60;;;;;;5080094;28;20545;-75
2022/07/28 11:05:33;;;;;;;3.17;1.67;;;25.00;68.50;;;;;;5070917;28;20453;-78
2022/07/28 11:08:04;;;;;;;2.00;1.07;;;25.20;67.70;;;;;;5066512;28;20473;-78
2022/07/28 11:10:44;;;;;;;1.97;1.00;;;25.20;67.20;;;;;;5073754;28;20540;-77
2022/07/28 11:13:24;;;;;;;2.53;1.13;;;25.40;68.80;;;;;;5069069;28;20472;-77
2022/07/28 11:15:51;;;;;;;3.23;1.10;;;25.30;67.40;;;;;;5072941;28;20472;-77
2022/07/28 11:18:19;;;;;;;3.10;1.50;;;25.00;67.00;;;;;;5086715;28;20441;-77
2022/07/28 11:21:09;;;;;;;3.00;1.40;;;25.20;66.80;;;;;;5086163;28;20476;-77
2022/07/28 11:23:45;;;;;;;2.50;1.00;;;24.90;67.20;;;;;;5066913;28;20566;-77
2022/07/28 11:26:45;;;;;;;2.37;1.20;;;24.80;68.20;;;;;;5072424;28;20484;-78
2022/07/28 11:29:21;;;;;;;2.73;1.20;;;24.80;68.90;;;;;;5072110;28;20489;-75
2022/07/28 11:31:58;;;;;;;2.13;1.17;;;24.80;70.00;;;;;;5073507;28;20445;-77
2022/07/28 11:34:25;;;;;;;6.03;1.37;;;24.90;68.60;;;;;;5072599;28;20524;-75
2022/07/28 11:37:00;;;;;;;1.43;0.90;;;25.20;68.90;;;;;;5074764;28;20476;-77
2022/07/28 11:39:28;;;;;;;1.70;1.27;;;25.10;68.20;;;;;;5074282;28;20451;-76
2022/07/28 11:41:57;;;;;;;4.23;1.33;;;24.90;68.50;;;;;;5073648;28;20932;-76
2022/07/28 11:44:26;;;;;;;2.40;1.20;;;24.90;67.80;;;;;;5073777;28;20494;-76
2022/07/28 11:46:52;;;;;;;3.17;1.20;;;25.00;69.20;;;;;;5068461;28;20453;-76
2022/07/28 11:49:27;;;;;;;2.60;1.30;;;25.40;68.30;;;;;;5074776;28;20449;-79
2022/07/28 11:52:11;;;;;;;2.30;1.00;;;25.50;66.60;;;;;;5073037;28;20516;-78
2022/07/28 11:54:39;;;;;;;3.70;1.33;;;25.40;66.60;;;;;;5073702;28;20464;-78
2022/07/28 11:57:10;;;;;;;2.03;0.90;;;25.40;67.30;;;;;;5073830;28;20495;-77
2022/07/28 11:59:43;;;;;;;1.40;0.90;;;25.00;67.00;;;;;;5070307;28;20453;-78
2022/07/28 12:02:10;;;;;;;2.30;1.10;;;24.50;68.00;;;;;;5073421;28;20498;-76
2022/07/28 12:04:36;;;;;;;2.90;1.00;;;24.50;69.70;;;;;;5066145;28;20531;-76
2022/07/28 12:07:05;;;;;;;3.30;1.43;;;24.60;69.90;;;;;;5073332;28;20571;-78
2022/07/28 12:09:32;;;;;;;3.83;0.63;;;24.50;68.70;;;;;;5072983;28;20459;-78
2022/07/28 12:11:59;;;;;;;3.17;1.03;;;24.30;68.30;;;;;;5072595;28;20453;-77
2022/07/28 12:14:28;;;;;;;2.33;1.30;;;24.40;69.70;;;;;;5074284;28;20477;-78
2022/07/28 12:16:56;;;;;;;7.17;1.20;;;24.50;70.20;;;;;;5073708;28;20485;-77
2022/07/28 12:19:23;;;;;;;2.60;1.40;;;24.80;70.70;;;;;;5072328;28;20523;-79
2022/07/28 12:21:51;;;;;;;2.00;0.90;;;25.00;70.00;;;;;;5072493;28;20458;-78
2022/07/28 12:24:25;;;;;;;1.93;1.20;;;25.20;69.00;;;;;;5071477;28;20996;-76
2022/07/28 12:26:53;;;;;;;2.37;1.07;;;25.20;68.50;;;;;;5054493;28;20832;-78
2022/07/28 12:29:20;;;;;;;2.90;1.23;;;25.20;68.10;;;;;;5072031;28;20535;-77
2022/07/28 12:31:57;;;;;;;3.47;1.70;;;25.20;68.20;;;;;;5072246;28;20464;-78
2022/07/28 12:34:25;;;;;;;4.60;1.20;;;25.30;68.20;;;;;;5073362;28;20497;-77
2022/07/28 12:36:52;;;;;;;2.73;1.10;;;25.10;67.70;;;;;;5072366;28;20434;-76
2022/07/28 12:39:21;;;;;;;4.07;1.00;;;25.00;68.70;;;;;;5072139;28;20433;-78
2022/07/28 12:41:49;;;;;;;4.27;1.10;;;24.70;68.50;;;;;;5065809;28;20503;-77
2022/07/28 12:44:16;;;;;;;5.80;1.80;;;24.50;69.80;;;;;;5070626;28;20975;-76
2022/07/28 12:46:47;;;;;;;2.10;1.10;;;24.40;70.10;;;;;;5071928;28;20651;-77
2022/07/28 12:49:22;;;;;;;4.40;1.17;;;24.30;70.20;;;;;;5065018;28;20482;-77
2022/07/28 12:51:49;;;;;;;2.20;1.40;;;24.10;70.30;;;;;;5071562;28;20889;-77
2022/07/28 12:54:16;;;;;;;3.70;1.33;;;24.00;70.50;;;;;;5072753;28;20579;-78
2022/07/28 12:56:47;;;;;;;5.30;1.50;;;24.00;69.50;;;;;;5070550;28;20464;-76
2022/07/28 12:59:16;;;;;;;5.13;2.23;;;23.80;70.50;;;;;;5073312;28;20487;-76